createdAt,value
2018-07-24T00:01:09.268Z,55.40
2018-07-24T00:06:07.856Z,55.30
2018-07-24T00:16:05.279Z,55.40
2018-07-24T00:18:34.827Z,55.60
2018-07-24T00:21:04.460Z,55.50
2018-07-24T00:26:03.332Z,55.50
2018-07-24T00:33:32.012Z,55.50
2018-07-24T00:45:58.162Z,55.50
2018-07-24T00:50:56.770Z,55.50
2018-07-24T00:55:55.417Z,55.50
2018-07-24T00:58:24.945Z,55.60
2018-07-24T01:03:23.566Z,55.60
2018-07-24T01:05:53.119Z,55.70
2018-07-24T01:10:51.736Z,55.60
2018-07-24T01:18:19.413Z,55.60
2018-07-24T01:20:48.939Z,55.60
2018-07-24T01:23:18.480Z,55.60
2018-07-24T01:25:48.024Z,55.50
2018-07-24T01:30:47.121Z,55.60
2018-07-24T01:38:15.325Z,55.70
2018-07-24T01:40:44.849Z,55.60
2018-07-24T01:45:43.480Z,55.70
2018-07-24T01:50:42.090Z,55.50
2018-07-24T01:53:11.640Z,55.60
2018-07-24T01:55:41.320Z,55.60
2018-07-24T01:58:10.876Z,55.50
2018-07-24T02:10:36.568Z,55.60
2018-07-24T02:20:33.378Z,55.60
2018-07-24T02:23:03.222Z,55.70
2018-07-24T02:28:02.039Z,55.70
2018-07-24T02:30:31.584Z,55.60
2018-07-24T02:35:30.204Z,55.70
2018-07-24T02:40:28.803Z,55.70
2018-07-24T02:42:58.356Z,55.70
2018-07-24T02:52:55.221Z,55.70
2018-07-24T02:55:24.769Z,55.70
2018-07-24T03:00:23.748Z,55.70
2018-07-24T03:02:53.261Z,55.80
2018-07-24T03:07:51.856Z,55.70
2018-07-24T03:12:50.466Z,55.80
2018-07-24T03:17:49.088Z,55.80
2018-07-24T03:25:16.795Z,55.70
2018-07-24T03:30:15.690Z,55.70
2018-07-24T03:45:11.270Z,55.80
2018-07-24T03:55:08.384Z,55.80
2018-07-24T04:00:07.310Z,55.80
2018-07-24T04:02:36.861Z,55.80
2018-07-24T04:07:35.653Z,55.80
2018-07-24T04:15:03.345Z,55.80
2018-07-24T04:22:31.361Z,55.80
2018-07-24T04:27:29.948Z,55.80
2018-07-24T04:32:29.048Z,55.80
2018-07-24T04:39:57.335Z,55.80
2018-07-24T04:42:26.802Z,55.80
2018-07-24T04:47:25.410Z,55.80
2018-07-24T04:49:54.938Z,55.90
2018-07-24T04:59:51.929Z,55.90
2018-07-24T05:02:21.459Z,55.80
2018-07-24T05:04:51.004Z,55.90
2018-07-24T05:17:16.849Z,55.90
2018-07-24T05:22:15.740Z,56.00
2018-07-24T05:29:44.274Z,56.00
2018-07-24T05:32:14.614Z,56.00
2018-07-24T05:34:44.162Z,56.00
2018-07-24T05:47:10.033Z,56.10
2018-07-24T05:57:06.813Z,56.00
2018-07-24T06:02:05.435Z,56.10
2018-07-24T06:09:33.396Z,55.90
2018-07-24T06:14:32.039Z,55.90
2018-07-24T06:17:01.859Z,55.90
2018-07-24T06:19:31.348Z,55.90
2018-07-24T06:34:26.716Z,56.40
2018-07-24T06:39:25.354Z,56.50
2018-07-24T06:41:54.893Z,56.50
2018-07-24T06:46:53.571Z,56.60
2018-07-24T07:14:14.620Z,60.20
2018-07-24T07:16:44.164Z,60.30
2018-07-24T07:21:42.799Z,60.40
2018-07-24T07:26:41.791Z,61.10
2018-07-24T07:34:09.494Z,60.60
2018-07-24T07:41:39.051Z,60.60
2018-07-24T07:46:38.422Z,61.10
2018-07-24T07:51:37.100Z,61.70
2018-07-24T07:54:06.633Z,61.00
2018-07-24T08:09:01.648Z,58.90
2018-07-24T08:14:00.256Z,58.40
2018-07-24T08:16:30.336Z,58.00
2018-07-24T08:18:59.839Z,58.20
2018-07-24T08:23:58.673Z,58.00
2018-07-24T08:28:57.342Z,58.00
2018-07-24T08:31:26.940Z,58.10
2018-07-24T08:33:56.508Z,58.20
2018-07-24T08:38:55.187Z,58.10
2018-07-24T08:41:24.700Z,58.00
2018-07-24T08:48:53.297Z,58.00
2018-07-24T08:53:52.084Z,58.00
2018-07-24T08:56:21.417Z,57.90
2018-07-24T09:06:19.060Z,57.80
2018-07-24T09:23:43.056Z,57.80
2018-07-24T09:31:10.802Z,57.70
2018-07-24T09:33:40.349Z,57.70
2018-07-24T09:46:06.500Z,57.60
2018-07-24T09:51:05.099Z,57.60
2018-07-24T09:56:03.773Z,57.50
2018-07-24T10:06:06.692Z,57.60
2018-07-24T10:08:36.247Z,58.10
2018-07-24T10:18:40.197Z,61.10
2018-07-24T10:26:07.921Z,57.50
2018-07-24T10:31:07.111Z,56.20
2018-07-24T10:33:36.640Z,56.90
2018-07-24T10:38:35.238Z,55.80
2018-07-24T10:51:02.131Z,57.20
2018-07-24T10:53:31.686Z,57.50
2018-07-24T11:03:28.454Z,58.30
2018-07-24T11:08:27.090Z,58.50
2018-07-24T11:13:25.730Z,58.40
2018-07-24T11:15:55.307Z,58.20
2018-07-24T11:20:53.964Z,57.90
2018-07-24T11:23:23.520Z,57.90
2018-07-24T11:25:53.304Z,57.60
2018-07-24T11:30:51.972Z,57.50
2018-07-24T11:35:51.204Z,57.30
2018-07-24T11:38:20.631Z,57.30
2018-07-24T11:43:19.232Z,57.20
2018-07-24T11:45:49.012Z,57.10
2018-07-24T11:50:53.946Z,57.00
2018-07-24T11:55:53.396Z,57.00
2018-07-24T11:58:22.953Z,57.00
2018-07-24T12:03:21.572Z,56.80
2018-07-24T12:08:20.247Z,56.50
2018-07-24T12:15:47.991Z,56.40
2018-07-24T12:25:44.775Z,56.00
2018-07-24T12:40:39.788Z,54.90
2018-07-24T12:48:08.058Z,54.10
2018-07-24T12:53:07.040Z,54.50
2018-07-24T13:00:34.792Z,53.80
2018-07-24T13:05:33.932Z,54.00
2018-07-24T13:08:03.502Z,53.40
2018-07-24T13:20:30.152Z,53.60
2018-07-24T13:32:56.531Z,55.20
2018-07-24T13:37:55.199Z,55.10
2018-07-24T13:45:23.121Z,54.20
2018-07-24T13:47:52.653Z,54.20
2018-07-24T13:50:22.196Z,54.30
2018-07-24T14:12:45.329Z,55.30
2018-07-24T14:15:14.948Z,55.60
2018-07-24T14:25:11.720Z,54.40
2018-07-24T14:27:41.254Z,53.40
2018-07-24T14:32:39.870Z,53.40
2018-07-24T14:42:36.703Z,52.60
2018-07-24T14:45:06.805Z,52.80
2018-07-24T14:57:39.279Z,53.80
2018-07-24T15:02:37.906Z,53.90
2018-07-24T15:15:04.412Z,54.00
2018-07-24T15:17:33.940Z,53.90
2018-07-24T15:22:32.603Z,54.00
2018-07-24T15:25:02.894Z,54.10
2018-07-24T15:35:01.311Z,54.20
2018-07-24T15:47:27.872Z,53.40
2018-07-24T15:59:54.499Z,53.20
2018-07-24T16:02:24.070Z,53.40
2018-07-24T16:07:22.665Z,53.90
2018-07-24T16:14:50.358Z,53.60
2018-07-24T16:17:19.908Z,53.70
2018-07-24T16:19:49.442Z,53.50
2018-07-24T16:24:48.068Z,53.10
2018-07-24T16:29:46.670Z,53.30
2018-07-24T16:34:45.335Z,53.70
2018-07-24T16:37:14.876Z,53.40
2018-07-24T16:42:13.503Z,54.80
2018-07-24T16:44:43.032Z,54.80
2018-07-24T16:49:41.727Z,55.60
2018-07-24T16:52:11.336Z,56.20
2018-07-24T17:12:04.746Z,56.90
2018-07-24T17:17:03.445Z,57.50
2018-07-24T17:19:33.008Z,57.20
2018-07-24T17:22:02.565Z,57.80
2018-07-24T17:29:37.168Z,56.60
2018-07-24T18:02:03.745Z,55.30
2018-07-24T18:09:38.192Z,55.20
2018-07-24T18:12:07.745Z,55.20
2018-07-24T18:14:37.263Z,55.20
2018-07-24T18:19:35.922Z,55.00
2018-07-24T18:24:34.545Z,55.00
2018-07-24T18:37:00.447Z,54.90
2018-07-24T18:39:29.990Z,54.90
2018-07-24T18:46:57.739Z,54.60
2018-07-24T18:54:25.880Z,54.60
2018-07-24T18:59:24.525Z,54.60
2018-07-24T19:01:54.117Z,54.60
2018-07-24T19:06:52.745Z,54.60
2018-07-24T19:11:51.366Z,54.60
2018-07-24T19:14:20.888Z,54.50
2018-07-24T19:34:14.603Z,54.50
2018-07-24T19:39:13.278Z,54.50
2018-07-24T19:41:42.797Z,54.50
2018-07-24T19:44:12.385Z,54.60
2018-07-24T19:49:10.945Z,54.60
2018-07-24T20:16:35.141Z,55.50
2018-07-24T20:19:04.932Z,55.50
2018-07-24T20:26:33.167Z,55.50
2018-07-24T20:31:32.264Z,55.70
2018-07-24T20:34:01.777Z,55.60
2018-07-24T20:36:31.327Z,55.60
2018-07-24T20:41:29.968Z,55.60
2018-07-24T20:56:25.236Z,55.80
2018-07-24T20:58:55.025Z,55.80
2018-07-24T21:06:22.728Z,55.80
2018-07-24T21:18:50.427Z,56.00
2018-07-24T21:21:19.980Z,56.10
2018-07-24T21:28:48.248Z,56.10
2018-07-24T21:33:46.898Z,56.10
2018-07-24T21:36:16.452Z,56.10
2018-07-24T21:41:15.077Z,56.20
2018-07-24T22:01:11.222Z,56.30
2018-07-24T22:06:10.520Z,56.40
2018-07-24T22:08:40.086Z,56.30
2018-07-24T22:13:38.668Z,56.30
2018-07-24T22:28:33.747Z,56.50
2018-07-24T22:33:32.442Z,56.60
2018-07-24T22:41:00.139Z,56.60
2018-07-24T22:50:56.965Z,56.80
2018-07-24T22:55:55.582Z,56.80
2018-07-24T23:03:23.275Z,56.90
2018-07-24T23:08:21.912Z,56.90
2018-07-24T23:10:51.450Z,56.80
2018-07-24T23:15:50.077Z,56.90
2018-07-24T23:20:48.680Z,56.90
2018-07-24T23:23:18.228Z,56.90
2018-07-24T23:33:15.105Z,57.00
2018-07-24T23:43:12.065Z,57.00
2018-07-24T23:45:41.950Z,57.00
2018-07-24T23:48:11.485Z,57.10
2018-07-24T23:53:10.540Z,57.20
2018-07-24T23:58:09.172Z,57.10
